Time;durP1;ratioP1;P1;durP2;ratioP2;P2;SDS_P1;SDS_P2;PMS_P1;PMS_P2;Temp;Humidity;BMP_temperature;BMP_pressure;BME280_temperature;BME280_humidity;BME280_pressure;Samples;Min_cycle;Max_cycle;Signal;HPM_P1;HPM_P2
2022/09/12 00:02:29;;;;;;;10.10;5.85;;;;;;;;;;5010204;28;20668;-69
2022/09/12 00:05:14;;;;;;;9.80;5.90;;;;;;;;;;4995666;28;20539;-70
2022/09/12 00:08:00;;;;;;;11.85;5.55;;;;;;;;;;5011899;28;20030;-70
2022/09/12 00:10:45;;;;;;;9.13;5.45;;;;;;;;;;5012953;28;20021;-69
2022/09/12 00:13:31;;;;;;;6.88;5.03;;;;;;;;;;5012588;28;20026;-69
2022/09/12 00:16:18;;;;;;;8.13;5.32;;;;;;;;;;4995064;28;20022;-73
2022/09/12 00:19:04;;;;;;;8.75;6.22;;;;;;;;;;5009718;28;20076;-72
2022/09/12 00:21:49;;;;;;;11.20;5.50;;;;;;;;;;5010313;28;20053;-68
2022/09/12 00:24:35;;;;;;;8.65;5.85;;;;;;;;;;5012325;28;20029;-69
2022/09/12 00:27:20;;;;;;;7.88;5.47;;;;;;;;;;4995304;28;20026;-68
2022/09/12 00:30:06;;;;;;;8.27;5.57;;;;;;;;;;4995872;28;20034;-69
2022/09/12 00:32:53;;;;;;;9.07;5.90;;;;;;;;;;5001631;28;20076;-68
2022/09/12 00:35:43;;;;;;;8.48;5.43;;;;;;;;;;5012209;28;20447;-64
2022/09/12 00:38:28;;;;;;;6.90;5.53;;;;;;;;;;5010110;28;20026;-72
2022/09/12 00:41:16;;;;;;;8.98;6.72;;;;;;;;;;5011725;28;20021;-72
2022/09/12 00:44:21;;;;;;;8.43;5.88;;;;;;;;;;5012347;28;20057;-73
2022/09/12 00:47:16;;;;;;;7.10;5.07;;;;;;;;;;5012260;28;20396;-72
2022/09/12 00:50:12;;;;;;;8.50;5.57;;;;;;;;;;5009479;28;20034;-71
2022/09/12 00:53:01;;;;;;;12.70;6.45;;;;;;;;;;5008765;28;20127;-71
2022/09/12 00:55:49;;;;;;;11.95;6.07;;;;;;;;;;4993004;28;20075;-67
2022/09/12 00:58:45;;;;;;;10.85;6.20;;;;;;;;;;5009509;28;20445;-64
2022/09/12 01:01:30;;;;;;;9.63;6.20;;;;;;;;;;5009942;28;20096;-64
2022/09/12 01:04:18;;;;;;;15.35;7.18;;;;;;;;;;5010677;28;20165;-64
2022/09/12 01:07:04;;;;;;;9.40;5.57;;;;;;;;;;5007283;28;20109;-63
2022/09/12 01:09:50;;;;;;;7.65;5.55;;;;;;;;;;5009887;28;20068;-62
2022/09/12 01:12:37;;;;;;;8.45;5.45;;;;;;;;;;4996884;28;20442;-69
2022/09/12 01:15:23;;;;;;;7.57;5.63;;;;;;;;;;4999441;28;20026;-67
2022/09/12 01:18:11;;;;;;;8.10;5.82;;;;;;;;;;5009893;28;20038;-67
2022/09/12 01:20:59;;;;;;;9.57;6.43;;;;;;;;;;5005116;28;20104;-67
2022/09/12 01:23:44;;;;;;;11.02;6.72;;;;;;;;;;5010795;28;20088;-67
2022/09/12 01:26:42;;;;;;;8.90;6.75;;;;;;;;;;5010421;28;20037;-71
2022/09/12 01:29:27;;;;;;;9.52;6.60;;;;;;;;;;5010731;28;20108;-69
2022/09/12 01:32:25;;;;;;;9.30;6.28;;;;;;;;;;5008413;28;20053;-81
2022/09/12 01:35:23;;;;;;;12.25;6.70;;;;;;;;;;5003477;28;20033;-64
2022/09/12 01:38:26;;;;;;;9.95;5.65;;;;;;;;;;4990656;28;20037;-64
2022/09/12 01:41:22;;;;;;;10.20;6.05;;;;;;;;;;5011060;28;20022;-64
2022/09/12 01:44:11;;;;;;;9.52;5.45;;;;;;;;;;5006902;28;20030;-64
2022/09/12 01:47:04;;;;;;;7.22;5.32;;;;;;;;;;4996379;28;20021;-65
2022/09/12 01:49:53;;;;;;;8.85;5.75;;;;;;;;;;5009683;28;20378;-65
2022/09/12 01:52:43;;;;;;;9.43;6.70;;;;;;;;;;5011237;28;20072;-65
2022/09/12 01:55:32;;;;;;;11.68;6.47;;;;;;;;;;5008732;28;20454;-65
2022/09/12 01:58:17;;;;;;;11.25;6.80;;;;;;;;;;5011376;28;20065;-64
2022/09/12 02:01:06;;;;;;;9.65;5.93;;;;;;;;;;5010268;28;20441;-64
2022/09/12 02:03:59;;;;;;;8.52;5.82;;;;;;;;;;5005688;28;20032;-63
2022/09/12 02:06:52;;;;;;;10.95;6.20;;;;;;;;;;5008774;28;20022;-63
2022/09/12 02:09:41;;;;;;;8.70;5.97;;;;;;;;;;5004574;28;20032;-73
2022/09/12 02:12:27;;;;;;;;;;;;;;;;;;5010126;28;20398;-64
2022/09/12 02:15:14;;;;;;;9.25;6.45;;;;;;;;;;5009873;28;19909;-65
2022/09/12 02:18:00;;;;;;;12.77;7.25;;;;;;;;;;4994649;28;20057;-68
2022/09/12 02:20:47;;;;;;;8.85;6.45;;;;;;;;;;5010169;28;20033;-65
2022/09/12 02:23:34;;;;;;;9.38;6.78;;;;;;;;;;5011347;28;20022;-63
2022/09/12 02:26:34;;;;;;;9.15;5.70;;;;;;;;;;5000180;28;20052;-69
2022/09/12 02:29:19;;;;;;;;;;;;;;;;;;5006958;28;20432;-64
2022/09/12 02:32:11;;;;;;;12.98;6.78;;;;;;;;;;5008249;28;20501;-64
2022/09/12 02:35:06;;;;;;;8.18;5.97;;;;;;;;;;5005597;28;20036;-65
2022/09/12 02:37:51;;;;;;;12.68;5.95;;;;;;;;;;5009608;28;20025;-65
2022/09/12 02:40:37;;;;;;;8.82;6.30;;;;;;;;;;5009250;28;20117;-65
2022/09/12 02:43:22;;;;;;;7.50;5.70;;;;;;;;;;5006898;28;20098;-66
2022/09/12 02:46:11;;;;;;;11.68;6.53;;;;;;;;;;5007644;28;20034;-73
2022/09/12 02:48:57;;;;;;;9.13;6.18;;;;;;;;;;5008645;28;20497;-69
2022/09/12 02:51:44;;;;;;;8.93;5.97;;;;;;;;;;5010373;28;20034;-70
2022/09/12 02:54:29;;;;;;;7.65;5.50;;;;;;;;;;4995857;28;20177;-69
2022/09/12 02:57:19;;;;;;;12.48;6.47;;;;;;;;;;5008656;28;20032;-69
2022/09/12 03:00:05;;;;;;;10.93;7.50;;;;;;;;;;4991391;28;20117;-70
2022/09/12 03:02:51;;;;;;;11.00;6.85;;;;;;;;;;5006741;28;20113;-65
2022/09/12 03:05:56;;;;;;;9.95;6.07;;;;;;;;;;5010738;28;20030;-65
2022/09/12 03:08:50;;;;;;;9.80;6.22;;;;;;;;;;4994133;28;20042;-65
2022/09/12 03:11:44;;;;;;;15.30;6.90;;;;;;;;;;5006623;28;20045;-65
2022/09/12 03:14:45;;;;;;;10.27;6.95;;;;;;;;;;5008323;28;20087;-64
2022/09/12 03:17:40;;;;;;;9.63;6.13;;;;;;;;;;5007333;28;20137;-65
2022/09/12 03:20:44;;;;;;;9.05;6.43;;;;;;;;;;5008813;28;20045;-65
2022/09/12 03:23:32;;;;;;;11.10;5.88;;;;;;;;;;5006273;28;20045;-69
2022/09/12 03:26:35;;;;;;;18.05;8.07;;;;;;;;;;5005257;28;20366;-69
2022/09/12 03:29:22;;;;;;;10.00;6.95;;;;;;;;;;5004820;28;20030;-70
2022/09/12 03:32:08;;;;;;;9.25;6.88;;;;;;;;;;5006828;28;20052;-72
2022/09/12 03:34:53;;;;;;;12.27;6.63;;;;;;;;;;5008518;28;20018;-70
2022/09/12 03:37:39;;;;;;;9.95;7.15;;;;;;;;;;4993913;28;20030;-70
2022/09/12 03:40:25;;;;;;;9.18;6.65;;;;;;;;;;5008914;28;20057;-72
2022/09/12 03:43:10;;;;;;;9.57;6.43;;;;;;;;;;5009114;28;20441;-64
2022/09/12 03:45:56;;;;;;;8.38;6.03;;;;;;;;;;5007004;28;20070;-65
2022/09/12 03:48:41;;;;;;;15.00;7.60;;;;;;;;;;5006610;28;20410;-65
2022/09/12 03:51:27;;;;;;;9.40;6.47;;;;;;;;;;5003110;28;20044;-64
2022/09/12 03:54:13;;;;;;;9.27;6.20;;;;;;;;;;5008553;28;20084;-65
2022/09/12 03:56:58;;;;;;;10.75;7.03;;;;;;;;;;5010784;28;20477;-65
2022/09/12 03:59:44;;;;;;;12.40;7.18;;;;;;;;;;5008202;28;20030;-66
2022/09/12 04:02:29;;;;;;;10.25;7.25;;;;;;;;;;5007427;28;20029;-64
2022/09/12 04:05:15;;;;;;;8.70;6.07;;;;;;;;;;5010304;28;20477;-66
2022/09/12 04:08:01;;;;;;;8.38;6.47;;;;;;;;;;5012739;28;20033;-64
2022/09/12 04:10:46;;;;;;;10.35;6.82;;;;;;;;;;5007590;28;20025;-64
2022/09/12 04:13:33;;;;;;;10.30;6.85;;;;;;;;;;5008904;28;20022;-65
2022/09/12 04:16:18;;;;;;;9.63;6.25;;;;;;;;;;5011632;28;20030;-68
2022/09/12 04:19:04;;;;;;;9.98;6.53;;;;;;;;;;5011431;28;20380;-68
2022/09/12 04:21:50;;;;;;;11.23;6.60;;;;;;;;;;5009133;28;20062;-65
2022/09/12 04:24:36;;;;;;;11.27;7.25;;;;;;;;;;5012390;28;20028;-65
2022/09/12 04:27:22;;;;;;;9.88;5.97;;;;;;;;;;5013337;28;20503;-64
2022/09/12 04:30:07;;;;;;;10.52;6.10;;;;;;;;;;5010517;28;20030;-65
2022/09/12 04:32:53;;;;;;;10.23;6.78;;;;;;;;;;5004979;28;20381;-65
2022/09/12 04:35:38;;;;;;;10.88;6.65;;;;;;;;;;5008435;28;20022;-64
2022/09/12 04:38:24;;;;;;;10.38;6.65;;;;;;;;;;5012623;28;20499;-64
2022/09/12 04:41:21;;;;;;;10.32;6.63;;;;;;;;;;5012607;28;20047;-64
2022/09/12 04:44:09;;;;;;;14.05;6.82;;;;;;;;;;5010127;28;20053;-64
2022/09/12 04:46:54;;;;;;;11.82;7.38;;;;;;;;;;5010403;28;20444;-64
2022/09/12 04:49:40;;;;;;;11.75;8.27;;;;;;;;;;5008398;28;20032;-64
2022/09/12 04:52:26;;;;;;;11.48;7.60;;;;;;;;;;5012382;28;20358;-63
2022/09/12 04:55:11;;;;;;;12.18;8.15;;;;;;;;;;5011392;28;20026;-66
2022/09/12 04:57:57;;;;;;;11.55;7.07;;;;;;;;;;5012735;28;20496;-79
2022/09/12 05:00:42;;;;;;;14.18;8.02;;;;;;;;;;4995155;28;20030;-80
2022/09/12 05:03:28;;;;;;;10.77;7.68;;;;;;;;;;4996594;28;20084;-80
2022/09/12 05:06:14;;;;;;;10.70;7.10;;;;;;;;;;5012167;28;20061;-79
2022/09/12 05:09:01;;;;;;;11.93;7.63;;;;;;;;;;5010460;28;20132;-80
2022/09/12 05:11:46;;;;;;;12.93;7.95;;;;;;;;;;5001819;28;20037;-79
2022/09/12 05:14:32;;;;;;;11.27;7.50;;;;;;;;;;5011180;28;20052;-74
2022/09/12 05:17:18;;;;;;;11.38;7.07;;;;;;;;;;5011256;28;20477;-74
2022/09/12 05:20:03;;;;;;;12.88;7.72;;;;;;;;;;5009375;28;20018;-73
2022/09/12 05:22:49;;;;;;;13.05;7.85;;;;;;;;;;5011308;28;20037;-74
2022/09/12 05:25:34;;;;;;;12.20;8.32;;;;;;;;;;5003128;28;20029;-73
2022/09/12 05:28:21;;;;;;;13.45;7.88;;;;;;;;;;5007468;28;20029;-72
2022/09/12 05:31:08;;;;;;;11.32;7.38;;;;;;;;;;5009753;28;20404;-69
2022/09/12 05:33:54;;;;;;;14.02;8.65;;;;;;;;;;5000771;28;20018;-68
2022/09/12 05:36:39;;;;;;;10.05;7.50;;;;;;;;;;4988507;28;20057;-68
2022/09/12 05:39:25;;;;;;;9.57;7.45;;;;;;;;;;5008730;28;20488;-67
2022/09/12 05:42:11;;;;;;;11.02;7.20;;;;;;;;;;5012468;28;20076;-67
2022/09/12 05:44:57;;;;;;;12.15;8.50;;;;;;;;;;5008168;28;20029;-67
2022/09/12 05:47:45;;;;;;;9.25;6.63;;;;;;;;;;5008924;28;20052;-68
2022/09/12 05:50:31;;;;;;;13.82;8.00;;;;;;;;;;5007652;28;20129;-68
2022/09/12 05:53:18;;;;;;;9.35;7.22;;;;;;;;;;5008513;28;20092;-67
2022/09/12 05:56:04;;;;;;;16.05;7.63;;;;;;;;;;5009682;28;20061;-67
2022/09/12 05:59:03;;;;;;;10.63;6.95;;;;;;;;;;5007744;28;20116;-69
2022/09/12 06:01:49;;;;;;;14.20;7.53;;;;;;;;;;5011264;28;20026;-70
2022/09/12 06:04:34;;;;;;;10.85;7.10;;;;;;;;;;5008614;28;20030;-73
2022/09/12 06:07:20;;;;;;;12.68;8.23;;;;;;;;;;5006732;28;20156;-71
2022/09/12 06:10:05;;;;;;;9.90;7.03;;;;;;;;;;5010536;28;20425;-72
2022/09/12 06:12:51;;;;;;;12.05;7.88;;;;;;;;;;4995919;28;20037;-72
2022/09/12 06:15:37;;;;;;;13.80;9.40;;;;;;;;;;4998207;28;20022;-72
2022/09/12 06:18:22;;;;;;;11.85;8.27;;;;;;;;;;5010239;28;20041;-73
2022/09/12 06:21:09;;;;;;;12.90;8.38;;;;;;;;;;5010103;28;20025;-73
2022/09/12 06:23:55;;;;;;;12.75;8.95;;;;;;;;;;5011342;28;20026;-72
2022/09/12 06:26:40;;;;;;;13.05;8.82;;;;;;;;;;5010779;28;20377;-73
2022/09/12 06:29:26;;;;;;;12.27;8.50;;;;;;;;;;5034694;22;20050;-75
2022/09/12 06:32:11;;;;;;;13.02;8.65;;;;;;;;;;5018148;28;20029;-74
2022/09/12 06:34:57;;;;;;;12.38;8.88;;;;;;;;;;5015031;28;20025;-75
2022/09/12 06:37:43;;;;;;;13.40;8.77;;;;;;;;;;5018233;28;20465;-74
2022/09/12 06:40:28;;;;;;;13.68;8.85;;;;;;;;;;5017276;28;20025;-75
2022/09/12 06:43:14;;;;;;;13.70;9.23;;;;;;;;;;5028991;28;20033;-74
2022/09/12 06:46:00;;;;;;;13.82;7.72;;;;;;;;;;5030454;28;20021;-71
2022/09/12 06:48:46;;;;;;;12.35;8.27;;;;;;;;;;5016882;28;20060;-70
2022/09/12 06:51:32;;;;;;;10.93;7.63;;;;;;;;;;5019660;28;20112;-71
2022/09/12 06:54:18;;;;;;;18.60;9.30;;;;;;;;;;5030168;28;20122;-71
2022/09/12 06:57:04;;;;;;;13.80;8.05;;;;;;;;;;5031001;28;20029;-71
2022/09/12 06:59:49;;;;;;;14.15;8.10;;;;;;;;;;5016524;28;20068;-71
2022/09/12 07:02:35;;;;;;;11.20;7.68;;;;;;;;;;5016721;28;20017;-71
2022/09/12 07:05:21;;;;;;;10.50;7.60;;;;;;;;;;5015435;28;20030;-73
2022/09/12 07:08:06;;;;;;;10.90;7.75;;;;;;;;;;5017127;28;20020;-74
2022/09/12 07:10:52;;;;;;;12.73;7.50;;;;;;;;;;5028749;28;20041;-74
2022/09/12 07:13:38;;;;;;;11.23;6.95;;;;;;;;;;5019861;28;20044;-74
2022/09/12 07:16:24;;;;;;;10.73;6.85;;;;;;;;;;5030437;28;20447;-73
2022/09/12 07:19:10;;;;;;;11.00;7.50;;;;;;;;;;5018117;28;20029;-74
2022/09/12 07:21:55;;;;;;;8.50;6.38;;;;;;;;;;5012212;28;20025;-75
2022/09/12 07:24:41;;;;;;;9.15;6.05;;;;;;;;;;4997117;28;20021;-73
2022/09/12 07:27:26;;;;;;;9.77;6.53;;;;;;;;;;4997302;28;20397;-73
2022/09/12 07:30:12;;;;;;;10.50;6.70;;;;;;;;;;5010423;28;20034;-73
2022/09/12 07:32:58;;;;;;;8.98;6.15;;;;;;;;;;5009740;28;20064;-73
2022/09/12 07:35:43;;;;;;;7.68;5.78;;;;;;;;;;5014986;28;20035;-73
2022/09/12 07:38:29;;;;;;;8.52;5.82;;;;;;;;;;5013321;28;20025;-73
2022/09/12 07:41:19;;;;;;;9.75;5.40;;;;;;;;;;5013256;28;20028;-74
2022/09/12 07:44:08;;;;;;;9.35;5.45;;;;;;;;;;5052598;23;20060;-71
2022/09/12 07:46:53;;;;;;;8.73;4.93;;;;;;;;;;5031967;28;20090;-71
2022/09/12 07:49:39;;;;;;;12.50;5.13;;;;;;;;;;5021536;28;20056;-70
2022/09/12 07:52:24;;;;;;;10.98;4.00;;;;;;;;;;5033463;28;20112;-71
2022/09/12 07:55:10;;;;;;;7.63;4.07;;;;;;;;;;5032518;28;20021;-71
2022/09/12 07:57:56;;;;;;;6.15;4.43;;;;;;;;;;5034391;28;20424;-73
2022/09/12 08:00:44;;;;;;;5.20;3.97;;;;;;;;;;5032976;28;20072;-74
2022/09/12 08:03:30;;;;;;;8.67;4.53;;;;;;;;;;5029092;28;20017;-74
2022/09/12 08:06:20;;;;;;;5.70;3.88;;;;;;;;;;5033993;28;20021;-76
2022/09/12 08:09:06;;;;;;;6.88;3.53;;;;;;;;;;5027006;28;20069;-74
2022/09/12 08:11:52;;;;;;;8.77;3.70;;;;;;;;;;5034230;28;20128;-74
2022/09/12 08:14:37;;;;;;;6.38;4.03;;;;;;;;;;5019987;28;20079;-74
2022/09/12 08:17:23;;;;;;;8.13;4.10;;;;;;;;;;5032403;28;20555;-70
2022/09/12 08:20:08;;;;;;;5.20;3.90;;;;;;;;;;5015104;28;20161;-71
2022/09/12 08:22:54;;;;;;;8.35;3.45;;;;;;;;;;5014863;28;20465;-72
2022/09/12 08:25:39;;;;;;;7.20;3.75;;;;;;;;;;5013891;28;20029;-71
2022/09/12 08:28:25;;;;;;;8.02;3.40;;;;;;;;;;5023066;28;20018;-72
2022/09/12 08:31:12;;;;;;;6.35;3.47;;;;;;;;;;5013793;28;20030;-71
2022/09/12 08:33:59;;;;;;;5.07;2.85;;;;;;;;;;5024630;28;20018;-74
2022/09/12 08:36:45;;;;;;;5.57;2.97;;;;;;;;;;5026589;28;20033;-74
2022/09/12 08:39:31;;;;;;;3.58;3.20;;;;;;;;;;5030312;28;20094;-75
2022/09/12 08:42:27;;;;;;;6.10;2.95;;;;;;;;;;5031519;28;20025;-74
2022/09/12 08:45:16;;;;;;;5.43;3.05;;;;;;;;;;5014615;28;20029;-75
2022/09/12 08:48:03;;;;;;;4.25;2.65;;;;;;;;;;5018125;28;20018;-75
2022/09/12 08:50:49;;;;;;;3.92;2.60;;;;;;;;;;5014439;28;20032;-75
2022/09/12 08:53:36;;;;;;;5.65;2.40;;;;;;;;;;5009832;28;20032;-73
2022/09/12 08:56:22;;;;;;;3.90;2.53;;;;;;;;;;4999530;28;20500;-73
2022/09/12 08:59:07;;;;;;;2.60;2.15;;;;;;;;;;4999685;28;20037;-75
2022/09/12 09:01:57;;;;;;;2.53;2.03;;;;;;;;;;5011999;28;20452;-74
2022/09/12 09:04:49;;;;;;;3.45;2.35;;;;;;;;;;5011584;28;20048;-75
2022/09/12 09:07:50;;;;;;;2.25;1.58;;;;;;;;;;5013305;28;20104;-74
2022/09/12 09:10:46;;;;;;;2.50;1.50;;;;;;;;;;5017317;28;20069;-74
2022/09/12 09:16:58;;;;;;;1.80;1.42;;;;;;;;;;5015942;28;20113;-75
2022/09/12 09:19:47;;;;;;;2.88;1.58;;;;;;;;;;5017446;28;20056;-74
2022/09/12 09:22:36;;;;;;;1.65;1.30;;;;;;;;;;5013276;28;20026;-74
2022/09/12 09:25:29;;;;;;;3.42;1.38;;;;;;;;;;5014023;28;20496;-72
2022/09/12 09:28:36;;;;;;;2.70;1.70;;;;;;;;;;5023680;28;20037;-73
2022/09/12 09:31:23;;;;;;;1.70;1.50;;;;;;;;;;5013425;28;20062;-71
2022/09/12 09:34:12;;;;;;;1.48;1.20;;;;;;;;;;5000035;28;20034;-77
2022/09/12 09:36:58;;;;;;;2.92;1.60;;;;;;;;;;5013168;28;20018;-77
2022/09/12 09:40:01;;;;;;;2.00;1.67;;;;;;;;;;5006905;28;20144;-77
2022/09/12 09:42:59;;;;;;;2.60;1.20;;;;;;;;;;4999422;28;20363;-78
2022/09/12 09:45:45;;;;;;;1.30;1.17;;;;;;;;;;5013012;28;20029;-76
2022/09/12 09:48:31;;;;;;;1.80;1.23;;;;;;;;;;5017106;28;20026;-71
2022/09/12 09:51:23;;;;;;;1.65;1.33;;;;;;;;;;5013323;28;20041;-71
2022/09/12 09:54:12;;;;;;;2.13;1.08;;;;;;;;;;5013173;28;20401;-69
2022/09/12 09:56:57;;;;;;;1.90;1.40;;;;;;;;;;5000067;28;20017;-69
2022/09/12 09:59:43;;;;;;;2.03;1.40;;;;;;;;;;4997682;28;20105;-71
2022/09/12 10:02:29;;;;;;;2.05;1.40;;;;;;;;;;5018305;28;20028;-71
2022/09/12 10:05:15;;;;;;;4.05;1.63;;;;;;;;;;5013168;28;20029;-71
2022/09/12 10:08:02;;;;;;;2.53;1.30;;;;;;;;;;5015554;28;20370;-78
2022/09/12 10:11:03;;;;;;;1.65;1.40;;;;;;;;;;5018107;28;20124;-72
2022/09/12 10:14:00;;;;;;;1.90;1.30;;;;;;;;;;5000659;28;20022;-72
2022/09/12 10:16:53;;;;;;;1.60;1.40;;;;;;;;;;5011793;28;20020;-69
2022/09/12 10:19:39;;;;;;;1.55;1.02;;;;;;;;;;5016290;28;20025;-70
2022/09/12 10:22:28;;;;;;;1.45;1.10;;;;;;;;;;5012753;28;20549;-71
2022/09/12 10:25:15;;;;;;;1.45;1.10;;;;;;;;;;5012787;28;20149;-74
2022/09/12 10:28:01;;;;;;;2.05;1.42;;;;;;;;;;5022465;28;20053;-73
2022/09/12 10:30:51;;;;;;;3.00;1.45;;;;;;;;;;5012499;28;20044;-74
2022/09/12 10:33:51;;;;;;;1.55;1.40;;;;;;;;;;5022787;28;20022;-74
2022/09/12 10:36:38;;;;;;;2.75;1.25;;;;;;;;;;5011840;28;20034;-73
2022/09/12 10:39:24;;;;;;;3.30;1.33;;;;;;;;;;5029101;28;20476;-73
2022/09/12 10:42:13;;;;;;;1.15;0.90;;;;;;;;;;5016812;28;20030;-73
2022/09/12 10:44:58;;;;;;;1.35;1.15;;;;;;;;;;5022513;28;20033;-77
2022/09/12 10:47:44;;;;;;;1.27;1.17;;;;;;;;;;5009767;28;20010;-70
2022/09/12 10:50:43;;;;;;;1.98;1.27;;;;;;;;;;5012154;28;20060;-70
2022/09/12 10:53:39;;;;;;;1.30;1.20;;;;;;;;;;5012501;28;20445;-71
2022/09/12 10:56:27;;;;;;;1.60;1.15;;;;;;;;;;5012237;28;20022;-70
2022/09/12 10:59:12;;;;;;;1.02;0.93;;;;;;;;;;5012105;28;20029;-70
2022/09/12 11:02:18;;;;;;;2.15;1.48;;;;;;;;;;5016163;28;20384;-78
2022/09/12 11:05:25;;;;;;;1.58;1.48;;;;;;;;;;5012158;28;20444;-74
2022/09/12 11:08:16;;;;;;;1.55;1.45;;;;;;;;;;5014454;28;20052;-74
2022/09/12 11:11:01;;;;;;;1.20;1.10;;;;;;;;;;5011825;28;20440;-75
2022/09/12 11:13:52;;;;;;;2.03;1.52;;;;;;;;;;4997355;28;20033;-74
2022/09/12 11:16:56;;;;;;;1.83;1.13;;;;;;;;;;5029359;28;20072;-75
2022/09/12 11:20:03;;;;;;;1.20;1.10;;;;;;;;;;5018377;28;20054;-71
2022/09/12 11:22:48;;;;;;;1.45;1.35;;;;;;;;;;5004502;28;20485;-74
2022/09/12 11:25:53;;;;;;;2.35;1.33;;;;;;;;;;5003710;28;20392;-74
2022/09/12 11:28:41;;;;;;;1.45;1.30;;;;;;;;;;5021942;28;20021;-75
2022/09/12 11:31:37;;;;;;;1.48;1.33;;;;;;;;;;5018814;28;20128;-75
2022/09/12 11:34:31;;;;;;;2.13;1.35;;;;;;;;;;5018216;28;20113;-74
2022/09/12 11:37:17;;;;;;;1.35;1.20;;;;;;;;;;5017208;28;20536;-74
2022/09/12 11:40:16;;;;;;;2.92;1.40;;;;;;;;;;5027150;28;20022;-73
2022/09/12 11:43:08;;;;;;;2.65;1.13;;;;;;;;;;5039843;23;20049;-73
2022/09/12 11:45:56;;;;;;;1.25;1.10;;;;;;;;;;5009325;28;20108;-72
2022/09/12 11:48:44;;;;;;;1.73;1.27;;;;;;;;;;5017520;28;20025;-72
2022/09/12 11:51:39;;;;;;;2.00;1.48;;;;;;;;;;5017421;28;20408;-71
2022/09/12 11:54:31;;;;;;;2.08;1.13;;;;;;;;;;5016682;28;20022;-72
2022/09/12 11:57:28;;;;;;;1.42;0.98;;;;;;;;;;5016759;28;20037;-78
2022/09/12 12:00:17;;;;;;;1.90;1.23;;;;;;;;;;5021335;28;20033;-72
2022/09/12 12:03:22;;;;;;;2.00;1.20;;;;;;;;;;5015873;28;20026;-72
2022/09/12 12:06:15;;;;;;;1.17;1.17;;;;;;;;;;5001155;28;20362;-73
2022/09/12 12:09:03;;;;;;;1.67;1.58;;;;;;;;;;5017754;28;20040;-72
2022/09/12 12:11:52;;;;;;;2.13;1.50;;;;;;;;;;5001473;28;20117;-72
2022/09/12 12:14:42;;;;;;;2.00;1.48;;;;;;;;;;5002297;28;20029;-72
2022/09/12 12:17:28;;;;;;;2.20;1.23;;;;;;;;;;5022063;28;20128;-72
2022/09/12 12:20:17;;;;;;;4.05;2.20;;;;;;;;;;5022895;28;20017;-76
2022/09/12 12:23:03;;;;;;;2.45;1.80;;;;;;;;;;5036309;28;20292;-76
2022/09/12 12:25:56;;;;;;;2.42;1.80;;;;;;;;;;5037272;28;20113;-76
2022/09/12 12:28:55;;;;;;;3.10;1.60;;;;;;;;;;5033431;28;20503;-76
2022/09/12 12:31:58;;;;;;;2.38;1.40;;;;;;;;;;5032652;28;20121;-76
2022/09/12 12:34:45;;;;;;;1.25;1.15;;;;;;;;;;5034039;28;20032;-77
2022/09/12 12:37:30;;;;;;;1.80;1.30;;;;;;;;;;5019477;28;20196;-78
2022/09/12 12:40:21;;;;;;;3.40;1.17;;;;;;;;;;5032970;28;20025;-79
2022/09/12 12:43:28;;;;;;;1.55;1.20;;;;;;;;;;5023227;28;20473;-78
2022/09/12 12:46:14;;;;;;;3.08;1.30;;;;;;;;;;5028337;28;20033;-79
2022/09/12 12:49:22;;;;;;;1.67;1.13;;;;;;;;;;5033751;28;20440;-79
2022/09/12 12:52:15;;;;;;;2.13;1.42;;;;;;;;;;5032962;28;20039;-72
2022/09/12 12:55:02;;;;;;;1.27;1.13;;;;;;;;;;5008275;28;20476;-77
2022/09/12 12:57:55;;;;;;;1.27;1.10;;;;;;;;;;5017470;28;20457;-79
2022/09/12 13:00:41;;;;;;;1.98;1.20;;;;;;;;;;5031857;28;20404;-81
2022/09/12 13:03:29;;;;;;;1.63;1.20;;;;;;;;;;5022322;28;20534;-79
2022/09/12 13:06:33;;;;;;;4.22;1.40;;;;;;;;;;5033707;28;20082;-79
2022/09/12 13:09:24;;;;;;;5.03;1.38;;;;;;;;;;5032880;28;20067;-79
2022/09/12 13:12:11;;;;;;;1.95;1.33;;;;;;;;;;5023959;28;20041;-74
2022/09/12 13:14:58;;;;;;;1.90;1.40;;;;;;;;;;5017594;28;20045;-78
2022/09/12 13:17:46;;;;;;;2.08;1.38;;;;;;;;;;5032508;28;20473;-77
2022/09/12 13:20:34;;;;;;;1.77;1.00;;;;;;;;;;5013664;28;20501;-76
2022/09/12 13:23:27;;;;;;;2.00;1.02;;;;;;;;;;5016605;28;20014;-76
2022/09/12 13:26:22;;;;;;;2.25;1.10;;;;;;;;;;5032962;28;20116;-77
2022/09/12 13:29:26;;;;;;;3.80;0.95;;;;;;;;;;5032879;28;20016;-78
2022/09/12 13:32:12;;;;;;;1.67;1.00;;;;;;;;;;5005697;28;20108;-75
2022/09/12 13:35:01;;;;;;;1.95;1.00;;;;;;;;;;5032552;28;20057;-73
2022/09/12 13:38:13;;;;;;;3.03;1.30;;;;;;;;;;5032375;28;20053;-72
2022/09/12 13:41:02;;;;;;;1.73;1.30;;;;;;;;;;5018845;28;20033;-73
2022/09/12 13:43:48;;;;;;;1.27;1.13;;;;;;;;;;5018454;28;20032;-73
2022/09/12 13:46:34;;;;;;;1.73;1.05;;;;;;;;;;5031054;28;20037;-73
2022/09/12 13:49:19;;;;;;;1.17;1.08;;;;;;;;;;5032948;28;20045;-76
2022/09/12 13:52:07;;;;;;;1.45;1.17;;;;;;;;;;5012122;28;20033;-76
2022/09/12 13:54:54;;;;;;;2.25;0.98;;;;;;;;;;5018099;28;20469;-76
2022/09/12 13:57:40;;;;;;;1.10;0.98;;;;;;;;;;5018007;28;20025;-75
2022/09/12 14:00:27;;;;;;;1.38;1.23;;;;;;;;;;5030841;28;20029;-75
2022/09/12 14:06:43;;;;;;;2.42;1.10;;;;;;;;;;5032582;28;20009;-73
2022/09/12 14:09:31;;;;;;;2.08;1.33;;;;;;;;;;5017096;28;20107;-75
2022/09/12 14:12:24;;;;;;;1.30;1.20;;;;;;;;;;5022979;28;20037;-74
2022/09/12 14:15:15;;;;;;;1.40;1.00;;;;;;;;;;5017006;28;20104;-75
2022/09/12 14:18:02;;;;;;;1.98;1.00;;;;;;;;;;5031029;28;20519;-74
2022/09/12 14:20:50;;;;;;;1.10;1.00;;;;;;;;;;5031790;28;20030;-72
2022/09/12 14:23:40;;;;;;;0.95;0.93;;;;;;;;;;5031633;28;20017;-74
2022/09/12 14:26:27;;;;;;;1.77;1.13;;;;;;;;;;5017804;28;20365;-77
2022/09/12 14:29:15;;;;;;;1.67;0.90;;;;;;;;;;5031774;28;20357;-78
2022/09/12 14:32:01;;;;;;;2.42;0.95;;;;;;;;;;5032468;28;20029;-76
2022/09/12 14:35:15;;;;;;;2.65;1.10;;;;;;;;;;5017853;28;20369;-76
2022/09/12 14:38:12;;;;;;;1.80;1.08;;;;;;;;;;5019912;28;20021;-78
2022/09/12 14:40:59;;;;;;;1.45;0.90;;;;;;;;;;5030865;28;20047;-77
2022/09/12 14:43:46;;;;;;;1.58;1.20;;;;;;;;;;5011668;28;20029;-76
2022/09/12 14:46:36;;;;;;;1.95;0.90;;;;;;;;;;5031037;28;20025;-78
2022/09/12 14:49:33;;;;;;;1.15;0.90;;;;;;;;;;5004988;28;20029;-77
2022/09/12 14:52:29;;;;;;;5.57;1.33;;;;;;;;;;5017670;28;20099;-78
2022/09/12 14:55:15;;;;;;;2.80;1.05;;;;;;;;;;5032923;28;20380;-76
2022/09/12 14:58:15;;;;;;;1.25;1.15;;;;;;;;;;5030664;28;20043;-77
2022/09/12 15:01:01;;;;;;;1.75;1.00;;;;;;;;;;5030009;28;20034;-80
2022/09/12 15:03:48;;;;;;;1.40;1.00;;;;;;;;;;5031523;28;20092;-72
2022/09/12 15:06:37;;;;;;;1.35;1.00;;;;;;;;;;5031926;28;20556;-78
2022/09/12 15:09:22;;;;;;;1.67;1.10;;;;;;;;;;5030811;28;20114;-78
2022/09/12 15:12:09;;;;;;;1.42;1.10;;;;;;;;;;5031142;28;20033;-79
2022/09/12 15:14:58;;;;;;;1.05;1.00;;;;;;;;;;5015330;28;20060;-78
2022/09/12 15:17:44;;;;;;;2.05;1.15;;;;;;;;;;5029645;28;20113;-79
2022/09/12 15:20:30;;;;;;;1.45;1.13;;;;;;;;;;5031275;28;20017;-78
2022/09/12 15:23:25;;;;;;;3.10;1.25;;;;;;;;;;5023688;28;20046;-76
2022/09/12 15:26:11;;;;;;;1.88;1.27;;;;;;;;;;5026839;28;20032;-75
2022/09/12 15:28:57;;;;;;;3.13;1.27;;;;;;;;;;5012021;28;20080;-76
2022/09/12 15:31:44;;;;;;;4.63;1.27;;;;;;;;;;5021494;28;20090;-74
2022/09/12 15:34:30;;;;;;;2.30;1.30;;;;;;;;;;5023007;28;20101;-76
2022/09/12 15:37:17;;;;;;;1.33;1.23;;;;;;;;;;5029975;28;20171;-76
2022/09/12 15:40:03;;;;;;;2.25;1.42;;;;;;;;;;5027525;28;20096;-77
2022/09/12 15:42:49;;;;;;;2.33;1.20;;;;;;;;;;5016794;28;20431;-72
2022/09/12 15:45:35;;;;;;;2.08;1.30;;;;;;;;;;5028763;28;20052;-72
2022/09/12 15:48:20;;;;;;;3.63;1.83;;;;;;;;;;5024186;28;20084;-72
2022/09/12 15:51:13;;;;;;;2.63;1.27;;;;;;;;;;5022337;28;20022;-71
2022/09/12 15:53:59;;;;;;;1.10;1.00;;;;;;;;;;5020080;28;20424;-72
2022/09/12 15:56:44;;;;;;;2.55;1.05;;;;;;;;;;5031551;28;20442;-71
2022/09/12 15:59:30;;;;;;;2.45;1.38;;;;;;;;;;5025260;28;20461;-78
2022/09/12 16:02:15;;;;;;;1.20;1.10;;;;;;;;;;5033198;28;20030;-82
2022/09/12 16:05:01;;;;;;;1.95;1.40;;;;;;;;;;5021735;28;20033;-81
2022/09/12 16:07:47;;;;;;;2.13;1.20;;;;;;;;;;5035033;28;20017;-81
2022/09/12 16:10:34;;;;;;;2.80;1.67;;;;;;;;;;5026422;28;20033;-82
2022/09/12 16:13:19;;;;;;;1.63;1.48;;;;;;;;;;5033287;28;20033;-82
2022/09/12 16:16:06;;;;;;;3.50;1.95;;;;;;;;;;5029023;28;20029;-80
2022/09/12 16:18:52;;;;;;;3.15;1.38;;;;;;;;;;5034022;28;20056;-77
2022/09/12 16:21:37;;;;;;;3.58;1.70;;;;;;;;;;5032976;28;20028;-78
2022/09/12 16:24:23;;;;;;;4.90;1.50;;;;;;;;;;5028641;28;20601;-76
2022/09/12 16:27:09;;;;;;;2.75;1.52;;;;;;;;;;5022080;28;20034;-77
2022/09/12 16:29:54;;;;;;;2.00;1.33;;;;;;;;;;5032170;28;20465;-76
2022/09/12 16:32:40;;;;;;;2.33;1.48;;;;;;;;;;5029427;28;20095;-77
2022/09/12 16:35:26;;;;;;;1.70;1.40;;;;;;;;;;5032627;28;20048;-77
2022/09/12 16:38:11;;;;;;;3.13;1.70;;;;;;;;;;5032816;28;20073;-76
2022/09/12 16:41:00;;;;;;;2.03;1.45;;;;;;;;;;5031382;28;20017;-75
2022/09/12 16:43:46;;;;;;;3.05;1.58;;;;;;;;;;5031170;28;20408;-76
2022/09/12 16:46:32;;;;;;;1.98;1.60;;;;;;;;;;5018014;28;20087;-75
2022/09/12 16:49:17;;;;;;;2.40;1.90;;;;;;;;;;5018961;28;20029;-77
2022/09/12 16:52:03;;;;;;;2.17;1.40;;;;;;;;;;5032697;28;20397;-72
2022/09/12 16:54:48;;;;;;;3.33;2.10;;;;;;;;;;5018869;28;20021;-71
2022/09/12 16:57:34;;;;;;;3.28;2.13;;;;;;;;;;5015821;28;20033;-71